Airfield :
LOGIN :

Register | Disclaimer

   EN    FR    IT 

 










Legend :    VFR   Marginal VFR   IFR   Intensive IFR   Very Intensive IFR
Visi :
Ceiling :
>= 8 km
>= 3000ft
5 to 8 km
1000 to 3000 ft
1500m to 5 km
500 to 1000 ft
800 to 1500m
200 to 500 ft
< 800m
< 200 ft
Symbols :   Thunderstorms  Fog  Heavy snow  Heavy precipitations  Wind > 20 kt
SIGMETs :     Misc.  Thunderstorms  Icing  Turbulence  Mountain Waves  Volcanic Ashes







- Airport Elevation : 364 ft
- Download approach charts


LFAQ - Albert Bray

CURRENT METAR :
  • 151300Z AUTO 19009KT CAVOK 24/11 Q1011 NOSIG

EXPIRED METARs :
  • 151230Z AUTO 20010KT 150V220 CAVOK 23/11 Q1011 NOSIG
  • 151200Z AUTO 18011KT CAVOK 23/11 Q1011 NOSIG
  • 151130Z AUTO 19010KT CAVOK 22/12 Q1011 NOSIG
  • 151100Z AUTO 19011KT 160V220 CAVOK 22/12 Q1011 NOSIG
  • 151030Z AUTO 19012KT CAVOK 21/12 Q1011 NOSIG

TAF TAF LFAQ
Valid from the 15 at 12:00 until the 15 at 21:00 UTC


151100Z 1512/1521 17010KT CAVOK
No reported NOTAMs for that airfield.



MET'MAP, your aeronautical weather chart ! - Copyright ORBIFLY December 2007 - Disclaimer

ORBIFLY MET'MAP TEAM :

Programming & Development : Alexandra Zaïnal
Concept & Development : Baudouin d'Aumeries
Co-Development & Prog : Marc-Olivier Méhu
Technical & hardware support : Manuel Goepfert

Contact : metmap@orbifly.com




SOURCES & CREDITS :

   NOAA